Time;durP1;ratioP1;P1;durP2;ratioP2;P2;SDS_P1;SDS_P2;PMS_P1;PMS_P2;Temp;Humidity;BMP_temperature;BMP_pressure;BME280_temperature;BME280_humidity;BME280_pressure;Samples;Min_cycle;Max_cycle;Signal;HPM_P1;HPM_P2
2022/08/05 00:01:22;;;;;;;2.80;2.60;;;;;;;27.25;60.43;100147.84;5092897;28;20186;-78
2022/08/05 00:03:50;;;;;;;3.05;2.72;;;;;;;27.18;60.99;100143.78;5078584;28;20198;-78
2022/08/05 00:06:18;;;;;;;10.70;3.00;;;;;;;27.13;61.31;100135.16;5075027;28;20190;-78
2022/08/05 00:08:45;;;;;;;3.08;2.83;;;;;;;27.06;62.10;100143.47;5085827;28;20234;-78
2022/08/05 00:11:14;;;;;;;3.03;2.78;;;;;;;27.08;62.27;100136.25;5077040;28;20202;-77
2022/08/05 00:13:43;;;;;;;5.00;2.70;;;;;;;26.94;62.69;100114.81;5089443;28;20195;-77
2022/08/05 00:16:11;;;;;;;3.83;2.97;;;;;;;27.07;62.65;100139.88;5072552;28;20206;-77
2022/08/05 00:18:42;;;;;;;8.05;2.63;;;;;;;26.95;63.13;100121.88;5073117;28;20207;-76
2022/08/05 00:21:09;;;;;;;4.70;2.60;;;;;;;26.94;63.28;100133.44;5079695;28;20194;-78
2022/08/05 00:23:38;;;;;;;3.15;2.95;;;;;;;26.99;63.79;100134.09;5090038;28;20560;-77
2022/08/05 00:26:05;;;;;;;2.92;2.72;;;;;;;26.92;64.20;100127.34;5088154;28;20190;-77
2022/08/05 00:28:33;;;;;;;2.78;2.60;;;;;;;26.87;64.51;100126.72;5092526;28;20225;-78
2022/08/05 00:31:00;;;;;;;2.88;2.67;;;;;;;26.75;66.20;100102.50;5092523;28;20201;-77
2022/08/05 00:33:26;;;;;;;3.70;2.63;;;;;;;26.53;66.04;100094.75;5092525;28;20205;-77
2022/08/05 00:35:53;;;;;;;3.47;3.05;;;;;;;26.54;66.80;100107.97;5090373;28;20225;-77
2022/08/05 00:38:20;;;;;;;3.65;2.88;;;;;;;26.69;66.88;100124.09;5083734;28;20210;-78
2022/08/05 00:40:50;;;;;;;3.17;2.80;;;;;;;26.81;67.13;100121.69;5073532;28;20674;-77
2022/08/05 00:43:17;;;;;;;3.28;2.80;;;;;;;26.83;66.53;100121.63;5084243;28;20603;-79
2022/08/05 00:45:46;;;;;;;7.85;3.00;;;;;;;26.79;66.91;100126.22;5077925;28;20194;-77
2022/08/05 00:48:14;;;;;;;4.07;2.75;;;;;;;26.75;67.02;100124.66;5072095;28;20222;-78
2022/08/05 00:50:44;;;;;;;3.15;2.85;;;;;;;26.62;67.76;100097.81;5084726;28;20205;-77
2022/08/05 00:53:11;;;;;;;2.88;2.72;;;;;;;26.75;67.67;100114.03;5086586;28;20202;-78
2022/08/05 00:55:37;;;;;;;6.20;2.95;;;;;;;26.73;68.01;100118.53;5071204;28;20198;-77
2022/08/05 00:58:06;;;;;;;3.10;2.80;;;;;;;26.73;67.62;100105.25;5090800;28;20213;-77
2022/08/05 01:00:32;;;;;;;2.83;2.63;;;;;;;26.68;68.21;100123.25;5090690;28;20198;-78
2022/08/05 01:02:59;;;;;;;3.08;2.60;;;;;;;26.58;68.70;100114.00;5086816;28;20217;-77
2022/08/05 01:05:26;;;;;;;3.28;3.00;;;;;;;26.47;68.42;100076.47;5072195;28;20730;-76
2022/08/05 01:07:53;;;;;;;2.60;2.50;;;;;;;26.72;69.01;100119.47;5090347;28;20222;-76
2022/08/05 01:10:24;;;;;;;3.28;2.97;;;;;;;26.68;69.02;100119.72;5072621;28;20190;-78
2022/08/05 01:12:58;;;;;;;2.95;2.75;;;;;;;26.57;69.65;100113.16;5091750;28;20693;-78
2022/08/05 01:15:32;;;;;;;3.70;2.97;;;;;;;26.58;69.84;100112.19;5091779;28;20287;-78
2022/08/05 01:18:03;;;;;;;7.03;3.72;;;;;;;26.48;71.25;100116.25;5071752;28;20206;-78
2022/08/05 01:20:40;;;;;;;2.90;2.70;;;;;;;26.36;72.31;100119.50;5072938;28;20206;-77
2022/08/05 01:23:13;;;;;;;3.28;3.08;;;;;;;26.22;70.97;100076.78;5090403;28;20198;-78
2022/08/05 01:25:53;;;;;;;3.30;2.58;;;;;;;26.36;72.92;100116.00;5087515;28;20206;-78
2022/08/05 01:28:35;;;;;;;3.33;3.03;;;;;;;26.44;72.95;100116.47;5070376;28;20714;-78
2022/08/05 01:31:08;;;;;;;3.17;2.92;;;;;;;26.18;74.30;100093.00;5070241;28;20202;-78
2022/08/05 01:33:39;;;;;;;3.22;2.90;;;;;;;26.24;73.83;100111.28;5070522;28;20287;-77
2022/08/05 01:36:10;;;;;;;8.63;2.95;;;;;;;26.23;72.62;100106.91;5073513;28;20226;-78
2022/08/05 01:38:38;;;;;;;3.20;3.00;;;;;;;26.20;72.65;100110.56;5055806;28;20194;-77
2022/08/05 01:41:07;;;;;;;3.08;2.90;;;;;;;26.22;72.75;100113.16;5091096;28;20404;-78
2022/08/05 01:43:37;;;;;;;4.57;3.00;;;;;;;26.18;73.30;100111.59;5086639;28;20202;-78
2022/08/05 01:46:05;;;;;;;3.50;2.78;;;;;;;26.17;73.74;100115.16;5078101;28;20193;-78
2022/08/05 01:48:35;;;;;;;3.30;3.00;;;;;;;26.26;73.29;100114.72;5070754;28;20219;-78
2022/08/05 01:51:03;;;;;;;3.30;2.85;;;;;;;25.75;73.44;100036.56;5071887;28;20625;-78
2022/08/05 01:53:34;;;;;;;4.00;2.78;;;;;;;26.25;73.45;100113.03;5070242;28;20710;-75
2022/08/05 01:56:02;;;;;;;4.03;2.90;;;;;;;26.19;73.25;100111.50;5073702;28;20209;-77
2022/08/05 01:58:31;;;;;;;2.95;2.75;;;;;;;26.07;75.16;100112.94;5090178;28;20692;-78
2022/08/05 02:01:01;;;;;;;3.03;2.80;;;;;;;25.88;75.15;100080.19;5090888;28;20209;-78
2022/08/05 02:03:32;;;;;;;3.25;2.95;;;;;;;26.07;75.92;100120.91;5090761;28;20202;-77
2022/08/05 02:06:01;;;;;;;4.65;3.30;;;;;;;26.09;76.12;100116.38;5075485;28;20588;-78
2022/08/05 02:08:28;;;;;;;5.07;3.10;;;;;;;26.01;85.14;100109.69;5089289;28;20250;-77
2022/08/05 02:11:02;;;;;;;5.20;3.25;;;;;;;25.93;90.03;100101.25;5044933;28;20203;-77
2022/08/05 02:13:35;;;;;;;3.33;3.03;;;;;;;25.62;95.61;100092.03;5055266;28;20210;-78
2022/08/05 02:16:07;;;;;;;3.30;3.10;;;;;;;25.50;99.90;100087.28;5072334;28;20651;-77
2022/08/05 02:18:40;;;;;;;3.15;2.95;;;;;;;25.56;99.21;100124.22;5090864;28;20591;-77
2022/08/05 02:21:12;;;;;;;4.55;3.40;;;;;;;25.40;96.56;100124.94;5083055;28;20249;-78
2022/08/05 02:23:42;;;;;;;3.78;3.50;;;;;;;25.27;98.89;100121.97;5084046;28;20203;-77
2022/08/05 02:26:11;;;;;;;4.90;3.10;;;;;;;25.09;100.00;100113.03;5018826;28;20188;-78
2022/08/05 02:28:41;;;;;;;3.45;3.13;;;;;;;25.13;100.00;100127.88;5090313;28;20636;-78
2022/08/05 02:31:15;;;;;;;3.35;3.20;;;;;;;25.07;100.00;100135.25;5047368;28;20210;-77
2022/08/05 02:33:50;;;;;;;7.47;3.53;;;;;;;25.01;100.00;100133.72;5070522;28;20210;-78
2022/08/05 02:36:19;;;;;;;6.40;3.70;;;;;;;24.99;100.00;100127.63;5072973;28;20228;-77
2022/08/05 02:38:48;;;;;;;4.50;3.45;;;;;;;24.96;100.00;100130.41;5085328;28;20202;-77
2022/08/05 02:41:17;;;;;;;4.38;3.58;;;;;;;24.89;100.00;100126.31;5075200;28;20186;-76
2022/08/05 02:43:47;;;;;;;3.53;3.13;;;;;;;24.91;100.00;100129.75;5086557;28;20202;-77
2022/08/05 02:46:16;;;;;;;3.95;3.50;;;;;;;24.89;100.00;100130.75;5072370;28;20214;-78
2022/08/05 02:48:46;;;;;;;3.90;3.60;;;;;;;24.88;100.00;100119.25;5090031;28;20228;-76
2022/08/05 02:51:15;;;;;;;4.18;3.55;;;;;;;24.94;100.00;100119.00;5090105;28;20197;-78
2022/08/05 02:53:43;;;;;;;5.15;3.30;;;;;;;25.20;100.00;100138.22;5051003;28;20194;-78
2022/08/05 02:56:11;;;;;;;5.43;3.50;;;;;;;25.27;99.96;100137.03;5079608;28;20194;-77
2022/08/05 02:58:40;;;;;;;8.30;3.33;;;;;;;25.11;98.56;100102.34;5090704;28;20206;-77
2022/08/05 03:01:11;;;;;;;6.10;3.45;;;;;;;25.23;96.77;100133.66;5081404;28;20252;-78
2022/08/05 03:03:41;;;;;;;3.75;3.38;;;;;;;25.11;96.15;100115.63;5074887;28;20194;-78
2022/08/05 03:06:10;;;;;;;7.25;3.63;;;;;;;25.24;95.86;100134.50;5086351;28;20638;-78
2022/08/05 03:08:38;;;;;;;4.95;3.38;;;;;;;24.94;96.99;100084.50;5071573;28;20213;-76
2022/08/05 03:11:16;;;;;;;4.15;3.65;;;;;;;25.29;95.32;100135.19;5084364;28;20618;-78
2022/08/05 03:13:42;;;;;;;7.30;3.28;;;;;;;25.32;94.84;100137.69;5077450;28;20206;-77
2022/08/05 03:16:09;;;;;;;3.90;3.22;;;;;;;25.30;94.60;100139.53;5056087;28;20198;-78
2022/08/05 03:18:36;;;;;;;6.15;3.42;;;;;;;24.87;93.11;100075.09;5073895;28;20676;-78
2022/08/05 03:21:05;;;;;;;6.95;3.15;;;;;;;25.31;93.09;100143.94;5091250;28;20205;-77
2022/08/05 03:23:32;;;;;;;3.83;3.40;;;;;;;25.26;94.96;100129.97;5082608;28;20194;-78
2022/08/05 03:25:59;;;;;;;7.57;3.28;;;;;;;25.24;92.34;100123.88;5084126;28;20214;-77
2022/08/05 03:28:27;;;;;;;3.85;3.53;;;;;;;25.37;91.56;100141.00;5093334;28;20701;-77
2022/08/05 03:30:54;;;;;;;4.68;3.45;;;;;;;25.36;91.17;100132.19;5093323;28;20650;-77
2022/08/05 03:33:21;;;;;;;4.18;3.78;;;;;;;25.32;91.05;100130.59;5093625;28;20202;-77
2022/08/05 03:35:49;;;;;;;4.88;3.70;;;;;;;25.40;91.45;100140.88;5093741;28;20217;-75
2022/08/05 03:38:17;;;;;;;3.55;3.22;;;;;;;25.40;91.97;100122.28;5074936;28;20562;-77
2022/08/05 03:40:45;;;;;;;4.35;3.70;;;;;;;25.46;92.38;100143.25;5075798;28;20202;-76
2022/08/05 03:43:13;;;;;;;6.40;3.80;;;;;;;25.47;92.81;100134.38;5060933;28;20201;-76
2022/08/05 03:45:39;;;;;;;8.82;3.75;;;;;;;25.72;91.74;100137.63;5093547;28;20259;-76
2022/08/05 03:48:07;;;;;;;11.00;4.00;;;;;;;26.02;90.62;100138.88;5076289;28;20709;-76
2022/08/05 03:50:40;;;;;;;6.93;4.25;;;;;;;26.47;88.38;100133.13;5085364;28;20191;-76
2022/08/05 03:53:10;;;;;;;4.78;3.88;;;;;;;26.92;85.85;100137.13;5086178;28;20213;-75
2022/08/05 03:55:44;;;;;;;7.13;3.80;;;;;;;27.18;81.66;100119.81;5080705;28;20289;-77
2022/08/05 03:58:16;;;;;;;7.40;4.15;;;;;;;27.68;78.71;100142.00;5073129;28;20659;-77
2022/08/05 04:00:45;;;;;;;6.13;3.90;;;;;;;28.16;75.25;100149.09;5073225;28;20194;-76
2022/08/05 04:03:13;;;;;;;7.07;3.45;;;;;;;28.41;73.44;100143.22;5082518;28;20205;-76
2022/08/05 04:05:41;;;;;;;4.50;3.17;;;;;;;28.70;71.10;100145.13;5074022;28;20217;-76
2022/08/05 04:08:10;;;;;;;3.45;3.13;;;;;;;28.91;69.02;100137.63;5091446;28;20579;-76
2022/08/05 04:10:39;;;;;;;12.10;3.28;;;;;;;28.91;68.11;100109.13;5063871;28;20194;-80
2022/08/05 04:13:07;;;;;;;8.48;4.10;;;;;;;29.39;66.78;100136.53;5075432;28;20647;-79
2022/08/05 04:15:34;;;;;;;3.60;3.30;;;;;;;29.68;66.59;100148.91;5072758;28;20202;-79
2022/08/05 04:18:03;;;;;;;5.28;3.50;;;;;;;30.00;65.43;100113.00;5037834;28;20210;-80
2022/08/05 04:20:30;;;;;;;3.50;3.20;;;;;;;30.61;63.56;100146.47;5072270;28;20221;-80
2022/08/05 04:22:56;;;;;;;13.68;4.05;;;;;;;30.53;63.04;100103.31;5072848;28;20202;-80
2022/08/05 04:25:24;;;;;;;6.00;3.28;;;;;;;31.27;60.38;100150.94;5075719;28;20559;-80
2022/08/05 04:27:52;;;;;;;9.38;3.03;;;;;;;31.68;58.53;100151.59;5071249;28;20306;-79
2022/08/05 04:30:18;;;;;;;4.55;3.85;;;;;;;31.74;57.04;100156.53;5074703;28;20190;-79
2022/08/05 04:32:45;;;;;;;5.53;3.28;;;;;;;31.81;56.67;100157.81;5041508;28;20208;-79
2022/08/05 04:35:12;;;;;;;4.30;2.92;;;;;;;31.30;58.02;100145.34;5073748;28;20951;-79
2022/08/05 04:37:39;;;;;;;5.50;3.10;;;;;;;30.99;59.99;100146.63;5072754;28;20666;-79
2022/08/05 04:40:07;;;;;;;4.22;3.13;;;;;;;31.03;61.59;100147.28;5072517;28;20202;-78
2022/08/05 04:42:34;;;;;;;3.88;3.40;;;;;;;31.23;60.71;100152.97;5075268;28;20194;-79
2022/08/05 04:45:02;;;;;;;5.90;3.20;;;;;;;31.51;61.36;100154.56;5073383;28;20201;-79
2022/08/05 04:47:29;;;;;;;3.63;3.30;;;;;;;31.58;61.27;100145.16;5076794;28;20195;-78
2022/08/05 04:49:56;;;;;;;8.68;4.20;;;;;;;31.53;60.38;100157.19;5072828;28;20682;-78
2022/08/05 04:52:22;;;;;;;3.60;3.40;;;;;;;32.16;57.62;100157.13;5073257;28;20202;-78
2022/08/05 04:54:49;;;;;;;5.47;3.40;;;;;;;31.94;57.65;100155.94;5049931;28;20678;-78
2022/08/05 04:57:16;;;;;;;7.05;3.38;;;;;;;32.32;55.77;100152.34;5051086;28;20190;-78
2022/08/05 04:59:43;;;;;;;4.68;3.08;;;;;;;32.28;53.63;100150.84;5072096;28;20202;-78
2022/08/05 05:02:11;;;;;;;4.05;2.85;;;;;;;32.14;53.13;100145.66;5071790;28;20567;-79
2022/08/05 05:04:38;;;;;;;10.60;4.10;;;;;;;32.20;53.49;100129.09;5071981;28;20654;-78
2022/08/05 05:07:05;;;;;;;6.93;3.72;;;;;;;32.11;53.83;100143.16;5071863;28;20198;-78
2022/08/05 05:09:32;;;;;;;5.03;3.03;;;;;;;32.08;53.49;100089.72;5071659;28;20616;-78
2022/08/05 05:11:58;;;;;;;9.80;4.07;;;;;;;32.56;52.93;100145.16;5064493;28;20195;-78
2022/08/05 05:14:25;;;;;;;3.58;3.28;;;;;;;32.48;52.89;100144.84;5071026;28;20579;-75
2022/08/05 05:16:52;;;;;;;6.25;3.38;;;;;;;32.84;52.14;100136.75;5065353;28;20228;-75
2022/08/05 05:19:20;;;;;;;7.88;4.18;;;;;;;33.70;50.29;100129.13;5069207;28;20211;-77
2022/08/05 05:21:47;;;;;;;5.68;3.80;;;;;;;33.60;50.23;100138.88;5027239;28;20209;-75
2022/08/05 05:24:14;;;;;;;5.55;3.45;;;;;;;32.80;51.55;100132.56;5073613;28;20898;-75
2022/08/05 05:26:41;;;;;;;4.68;3.72;;;;;;;33.37;52.14;100134.44;5082011;28;20198;-75
2022/08/05 05:29:08;;;;;;;3.83;3.50;;;;;;;33.35;52.34;100139.97;5057036;28;20686;-75
2022/08/05 05:31:34;;;;;;;5.32;3.47;;;;;;;33.76;51.46;100136.69;5054860;28;20682;-75
2022/08/05 05:34:01;;;;;;;4.57;3.25;;;;;;;34.14;50.76;100143.56;5065653;28;20206;-76
2022/08/05 05:36:30;;;;;;;4.18;3.20;;;;;;;32.82;53.20;100122.56;5051012;28;20308;-76
2022/08/05 05:38:57;;;;;;;6.50;3.22;;;;;;;32.93;52.33;100127.97;5051532;28;20198;-73
2022/08/05 05:41:24;;;;;;;5.47;3.47;;;;;;;33.04;52.52;100128.97;5055295;28;20288;-76
2022/08/05 05:43:51;;;;;;;7.97;3.92;;;;;;;32.59;54.07;100134.19;5057990;28;20575;-76
2022/08/05 05:46:18;;;;;;;4.32;3.70;;;;;;;32.00;54.41;100109.03;5057403;28;20203;-76
2022/08/05 05:48:45;;;;;;;3.58;3.38;;;;;;;30.46;60.50;100110.91;5071048;28;20225;-74
2022/08/05 05:51:17;;;;;;;3.53;3.20;;;;;;;30.57;62.53;100134.28;5035042;28;20202;-73
2022/08/05 05:53:45;;;;;;;3.70;3.40;;;;;;;30.60;63.26;100139.44;5066964;28;20654;-74
2022/08/05 05:56:12;;;;;;;5.78;3.20;;;;;;;29.98;65.09;100141.69;5056597;28;20211;-75
2022/08/05 05:58:39;;;;;;;5.35;3.30;;;;;;;29.97;65.73;100145.31;5050871;28;20206;-76
2022/08/05 06:01:06;;;;;;;3.72;3.53;;;;;;;29.48;67.64;100125.25;5058580;28;20194;-76
2022/08/05 06:03:32;;;;;;;4.40;3.53;;;;;;;29.64;68.70;100141.22;5070670;28;20198;-76
2022/08/05 06:05:59;;;;;;;4.75;3.63;;;;;;;29.58;67.97;100147.78;5070961;28;20217;-76
2022/08/05 06:08:26;;;;;;;3.90;3.63;;;;;;;29.40;70.67;100148.91;5034972;28;20214;-76
2022/08/05 06:10:54;;;;;;;4.85;3.30;;;;;;;29.65;69.96;100150.91;5070658;28;20603;-77
2022/08/05 06:13:21;;;;;;;5.32;3.60;;;;;;;29.04;71.73;100143.97;5032256;28;20194;-76
2022/08/05 06:15:48;;;;;;;3.67;3.38;;;;;;;28.61;72.57;100158.94;5069968;28;20202;-80
2022/08/05 06:18:15;;;;;;;3.45;3.10;;;;;;;28.45;74.42;100152.78;5069796;28;20252;-76
2022/08/05 06:20:41;;;;;;;5.72;3.65;;;;;;;28.69;75.08;100151.38;5063978;28;20273;-76
2022/08/05 06:23:08;;;;;;;4.35;3.67;;;;;;;28.73;74.42;100128.91;5068515;28;20199;-75
2022/08/05 06:25:35;;;;;;;5.75;3.50;;;;;;;28.21;73.32;100080.38;5056251;28;20215;-74
2022/08/05 06:28:04;;;;;;;4.47;3.92;;;;;;;28.70;74.91;100126.44;5069423;28;20198;-76
2022/08/05 06:30:30;;;;;;;3.65;3.35;;;;;;;29.12;73.64;100146.16;5069665;28;20655;-76
2022/08/05 06:32:57;;;;;;;6.13;3.40;;;;;;;28.90;73.62;100133.25;5062541;28;20226;-74
2022/08/05 06:35:24;;;;;;;4.53;3.30;;;;;;;28.56;72.07;100150.34;5020716;28;20215;-76
2022/08/05 06:37:51;;;;;;;4.32;3.28;;;;;;;28.46;72.76;100143.84;5050370;28;20195;-76
2022/08/05 06:40:18;;;;;;;4.32;3.45;;;;;;;28.75;70.71;100140.38;5050257;28;20199;-77
2022/08/05 06:42:45;;;;;;;5.18;3.65;;;;;;;28.98;71.00;100147.88;5061678;28;20218;-77
2022/08/05 06:45:13;;;;;;;5.93;3.40;;;;;;;28.85;69.88;100141.53;5069513;28;20194;-76
2022/08/05 06:47:40;;;;;;;3.95;3.45;;;;;;;28.76;68.72;100146.53;5053564;28;20702;-78
2022/08/05 06:50:08;;;;;;;4.03;3.75;;;;;;;28.87;68.30;100149.44;5050058;28;20792;-78
2022/08/05 06:52:35;;;;;;;4.28;3.40;;;;;;;28.82;69.86;100148.88;5050037;28;20218;-78
2022/08/05 06:55:02;;;;;;;4.13;3.83;;;;;;;28.84;70.62;100134.47;5050534;28;20206;-76
2022/08/05 06:57:28;;;;;;;6.00;3.30;;;;;;;28.70;69.80;100138.91;5014290;28;20622;-76
2022/08/05 06:59:55;;;;;;;3.90;3.60;;;;;;;28.90;69.60;100152.78;5049274;28;20203;-78
2022/08/05 07:02:23;;;;;;;3.97;3.60;;;;;;;29.10;69.58;100148.94;5060503;28;20601;-77
2022/08/05 07:04:50;;;;;;;3.70;3.40;;;;;;;29.14;67.19;100153.16;5048980;28;20203;-76
2022/08/05 07:07:17;;;;;;;3.88;3.58;;;;;;;29.18;66.29;100154.66;5059492;28;20202;-77
2022/08/05 07:09:44;;;;;;;6.68;3.70;;;;;;;29.54;64.75;100154.25;5049357;28;20219;-78
2022/08/05 07:16:47;;;;;;;4.32;4.00;;;;;;;29.62;65.94;100154.66;5056904;28;20634;-77
2022/08/05 07:17:43;;;;;;;4.15;3.40;;;;;;;29.73;61.96;100151.31;5059598;28;20592;-77
2022/08/05 07:20:10;;;;;;;3.65;3.30;;;;;;;29.72;59.72;100144.22;5044511;28;20199;-77
2022/08/05 07:22:37;;;;;;;3.47;3.17;;;;;;;29.89;59.81;100136.06;5067434;28;20195;-77
2022/08/05 07:25:05;;;;;;;6.63;3.55;;;;;;;30.28;59.02;100148.69;5068543;28;20206;-78
2022/08/05 07:27:32;;;;;;;3.10;2.80;;;;;;;30.24;55.77;100149.84;5016496;28;20211;-76
2022/08/05 07:29:59;;;;;;;5.32;3.17;;;;;;;29.97;58.38;100134.59;5030966;28;20210;-77
2022/08/05 07:32:26;;;;;;;5.72;3.40;;;;;;;29.99;56.54;100135.38;5049767;28;20556;-77
2022/08/05 07:34:54;;;;;;;5.75;3.50;;;;;;;30.14;57.33;100143.38;5049701;28;20243;-77
2022/08/05 07:37:21;;;;;;;6.07;3.53;;;;;;;30.12;56.61;100153.28;5049704;28;20206;-77
2022/08/05 07:39:48;;;;;;;3.17;2.97;;;;;;;30.08;55.45;100146.41;5049935;28;20195;-77
2022/08/05 07:42:15;;;;;;;3.40;2.90;;;;;;;30.34;55.97;100133.09;5049844;28;20195;-77
2022/08/05 07:44:42;;;;;;;3.85;3.47;;;;;;;30.68;55.08;100141.59;5049658;28;20586;-77
2022/08/05 07:47:08;;;;;;;3.20;3.00;;;;;;;30.68;54.56;100147.78;5030818;28;20202;-77
2022/08/05 07:49:35;;;;;;;8.65;2.95;;;;;;;30.69;54.51;100146.84;5049753;28;20311;-75
2022/08/05 07:52:04;;;;;;;6.78;3.28;;;;;;;30.34;53.90;100137.56;5067393;28;20202;-76
2022/08/05 07:54:31;;;;;;;2.80;2.60;;;;;;;30.40;54.62;100142.50;5069710;28;20206;-76
2022/08/05 07:56:57;;;;;;;3.00;2.80;;;;;;;30.35;54.28;100139.28;5072255;28;20202;-76
2022/08/05 07:59:24;;;;;;;4.07;3.20;;;;;;;30.48;55.41;100145.59;5073230;28;20662;-76
2022/08/05 08:01:51;;;;;;;5.97;3.60;;;;;;;30.72;53.33;100137.72;5037468;28;20198;-76
2022/08/05 08:04:18;;;;;;;3.38;3.00;;;;;;;30.50;53.73;100141.00;5073124;28;20678;-76
2022/08/05 08:06:45;;;;;;;4.05;3.30;;;;;;;30.69;53.26;100148.66;5073201;28;20205;-77
2022/08/05 08:09:13;;;;;;;3.88;3.13;;;;;;;30.95;52.30;100135.22;5072836;28;20229;-77
2022/08/05 08:11:40;;;;;;;2.65;2.45;;;;;;;31.01;51.86;100122.38;5053491;28;20214;-77
2022/08/05 08:14:06;;;;;;;3.67;3.38;;;;;;;31.27;51.83;100140.22;5072341;28;20221;-76
2022/08/05 08:16:33;;;;;;;4.65;2.53;;;;;;;30.97;50.17;100144.03;5072491;28;20204;-76
2022/08/05 08:19:00;;;;;;;3.22;2.92;;;;;;;30.89;50.45;100140.97;5072246;28;20197;-77
2022/08/05 08:21:27;;;;;;;6.00;3.17;;;;;;;31.15;52.23;100127.66;5072153;28;20198;-77
2022/08/05 08:23:54;;;;;;;3.92;3.03;;;;;;;31.16;51.18;100137.41;5072416;28;20221;-77
2022/08/05 08:26:22;;;;;;;4.05;3.13;;;;;;;30.97;49.68;100138.69;5072021;28;20206;-76
2022/08/05 08:28:49;;;;;;;3.72;2.95;;;;;;;31.05;49.27;100138.16;5072169;28;20224;-77
2022/08/05 08:31:17;;;;;;;3.90;2.45;;;;;;;31.15;48.42;100135.69;5071933;28;20202;-77
2022/08/05 08:33:44;;;;;;;2.90;2.70;;;;;;;31.02;48.28;100134.81;5069622;28;20230;-77
2022/08/05 08:36:11;;;;;;;7.35;2.65;;;;;;;31.01;48.96;100109.00;5072037;28;20229;-77
2022/08/05 08:38:38;;;;;;;6.78;2.58;;;;;;;31.16;48.34;100086.50;5072142;28;20643;-75
2022/08/05 08:41:07;;;;;;;2.70;2.50;;;;;;;31.28;45.63;100136.56;5071951;28;20674;-77
2022/08/05 08:43:36;;;;;;;3.08;2.80;;;;;;;31.56;47.64;100124.81;5071951;28;20202;-77
2022/08/05 08:46:04;;;;;;;2.80;2.60;;;;;;;31.76;45.87;100133.13;5069316;28;20197;-76
2022/08/05 08:48:32;;;;;;;3.38;2.80;;;;;;;31.84;44.27;100120.03;5071894;28;20666;-77
2022/08/05 08:51:00;;;;;;;2.42;2.33;;;;;;;31.89;45.25;100133.94;5027235;28;20223;-77
2022/08/05 08:53:34;;;;;;;2.72;2.50;;;;;;;31.77;45.78;100116.09;5072075;28;20202;-75
2022/08/05 08:56:03;;;;;;;3.38;2.75;;;;;;;31.96;45.28;100118.31;5071991;28;20202;-76
2022/08/05 08:58:30;;;;;;;2.70;2.50;;;;;;;31.76;45.99;100094.72;5072073;28;20570;-77
2022/08/05 09:00:59;;;;;;;3.72;2.90;;;;;;;31.86;44.40;100125.28;5072326;28;20205;-77
2022/08/05 09:03:26;;;;;;;3.13;2.40;;;;;;;31.92;44.15;100125.72;5062955;28;20207;-77
2022/08/05 09:05:53;;;;;;;2.30;2.20;;;;;;;31.62;44.64;100119.00;5064219;28;20198;-77
2022/08/05 09:08:22;;;;;;;7.43;3.05;;;;;;;31.51;46.40;100105.47;5057068;28;20203;-78
2022/08/05 09:10:51;;;;;;;4.93;2.80;;;;;;;31.86;46.05;100123.44;5052695;28;20218;-76
2022/08/05 09:13:18;;;;;;;4.97;3.28;;;;;;;32.06;45.74;100115.81;5058031;28;20202;-76
2022/08/05 09:15:45;;;;;;;5.63;3.10;;;;;;;31.94;46.20;100104.97;5071806;28;20271;-77
2022/08/05 09:18:14;;;;;;;3.17;2.97;;;;;;;31.97;46.10;100117.31;5069166;28;20190;-76
2022/08/05 09:20:43;;;;;;;3.70;2.78;;;;;;;31.82;46.18;100094.31;5032778;28;20286;-77
2022/08/05 09:23:11;;;;;;;4.13;3.00;;;;;;;31.94;46.21;100075.47;5068869;28;20233;-76
2022/08/05 09:25:40;;;;;;;4.13;3.00;;;;;;;32.11;45.74;100074.25;5071462;28;20198;-76
2022/08/05 09:28:12;;;;;;;4.35;3.25;;;;;;;32.16;45.79;100087.34;5071621;28;20201;-75
2022/08/05 09:30:43;;;;;;;2.70;2.45;;;;;;;31.91;45.45;100083.75;5071426;28;20225;-76
2022/08/05 09:33:10;;;;;;;3.25;3.00;;;;;;;32.15;44.96;100082.94;5058297;28;20217;-75
2022/08/05 09:35:52;;;;;;;2.67;2.58;;;;;;;32.58;45.04;100089.47;5063001;28;20239;-76
2022/08/05 09:38:19;;;;;;;3.40;3.20;;;;;;;32.55;43.82;100094.22;5066328;28;20211;-75
2022/08/05 09:40:46;;;;;;;3.78;2.50;;;;;;;32.35;44.56;100072.44;5071348;28;20202;-76
2022/08/05 09:43:26;;;;;;;3.28;2.97;;;;;;;32.59;44.45;100085.88;5070518;28;20206;-76
2022/08/05 09:45:53;;;;;;;3.63;3.42;;;;;;;32.46;43.79;100082.38;5071283;28;20198;-76
2022/08/05 09:48:24;;;;;;;3.25;3.05;;;;;;;32.27;44.48;100079.34;5071128;28;20209;-76
2022/08/05 09:50:55;;;;;;;5.78;3.03;;;;;;;32.36;43.89;100078.66;5071203;28;20237;-77
2022/08/05 09:53:23;;;;;;;3.75;3.42;;;;;;;32.31;42.99;100057.53;5071438;28;20213;-75
2022/08/05 09:55:55;;;;;;;6.60;3.83;;;;;;;32.71;43.64;100074.16;5071096;28;20205;-76
2022/08/05 09:58:22;;;;;;;4.88;3.05;;;;;;;32.56;43.76;100064.59;5070773;28;20198;-73
2022/08/05 10:00:54;;;;;;;3.35;3.15;;;;;;;32.46;44.15;100068.09;5070894;28;20198;-78
2022/08/05 10:03:21;;;;;;;3.72;3.42;;;;;;;32.47;44.17;100033.06;5070331;28;20206;-75
2022/08/05 10:06:03;;;;;;;3.80;3.42;;;;;;;32.17;44.35;100000.50;5070606;28;20279;-75
2022/08/05 10:08:30;;;;;;;5.55;3.42;;;;;;;32.89;43.41;100067.38;5031885;28;20244;-75
2022/08/05 10:10:57;;;;;;;5.57;3.65;;;;;;;32.85;42.76;100070.44;5070222;28;20677;-75
2022/08/05 10:13:29;;;;;;;3.70;3.47;;;;;;;32.97;42.82;100060.56;5069975;28;20731;-75
2022/08/05 10:15:59;;;;;;;11.73;3.45;;;;;;;32.55;42.79;100038.69;5068430;28;20201;-76
2022/08/05 10:18:26;;;;;;;6.68;3.55;;;;;;;32.86;42.26;100062.25;5069268;28;20198;-75
2022/08/05 10:20:55;;;;;;;8.30;3.92;;;;;;;32.93;42.39;100058.09;5070028;28;20697;-75
2022/08/05 10:23:25;;;;;;;5.15;3.72;;;;;;;33.14;42.99;100052.91;5070419;28;20199;-76
2022/08/05 10:25:53;;;;;;;4.15;3.50;;;;;;;33.33;42.18;100060.38;5031590;28;20221;-76
2022/08/05 10:28:21;;;;;;;5.30;3.85;;;;;;;33.13;41.87;100031.56;5050819;28;20213;-76
2022/08/05 10:30:48;;;;;;;3.42;3.00;;;;;;;33.21;42.13;100045.25;5050536;28;20313;-76
2022/08/05 10:33:15;;;;;;;7.35;3.60;;;;;;;33.26;42.65;100043.88;5050344;28;20203;-76
2022/08/05 10:35:42;;;;;;;4.32;3.72;;;;;;;33.40;41.93;100045.47;5050238;28;20261;-76
2022/08/05 10:38:12;;;;;;;7.18;3.85;;;;;;;33.21;42.10;100027.25;5050078;28;20195;-76
2022/08/05 10:40:46;;;;;;;6.72;3.60;;;;;;;33.48;42.62;100037.66;5050061;28;20225;-77
2022/08/05 10:43:24;;;;;;;4.22;3.58;;;;;;;33.85;41.18;100038.25;5050194;28;20194;-77
2022/08/05 10:45:58;;;;;;;4.00;3.58;;;;;;;34.00;40.37;100038.81;5051958;28;20198;-77
2022/08/05 10:48:36;;;;;;;3.90;3.38;;;;;;;34.23;39.91;100029.72;5068583;28;20191;-76
2022/08/05 10:51:09;;;;;;;6.95;3.58;;;;;;;34.05;40.34;100024.00;5068176;28;20229;-76
2022/08/05 10:53:41;;;;;;;7.30;4.15;;;;;;;33.95;40.15;100031.13;5068060;28;20256;-76
2022/08/05 10:56:12;;;;;;;3.17;2.95;;;;;;;34.04;39.01;100002.56;5068928;28;20198;-76
2022/08/05 10:58:49;;;;;;;4.03;3.50;;;;;;;34.32;40.38;100019.00;5069107;28;20202;-76
2022/08/05 11:01:16;;;;;;;3.25;3.05;;;;;;;34.77;38.24;100024.19;5070045;28;20193;-76
2022/08/05 11:04:03;;;;;;;8.18;3.80;;;;;;;34.77;38.05;100025.06;5068974;28;20186;-76
2022/08/05 11:06:30;;;;;;;12.55;3.53;;;;;;;35.02;38.02;100020.22;5061877;28;20206;-76
2022/08/05 11:09:28;;;;;;;3.67;3.38;;;;;;;35.01;37.73;100022.06;5065855;28;20209;-75
2022/08/05 11:11:56;;;;;;;11.48;3.50;;;;;;;35.41;38.28;100010.47;5006769;28;20224;-75
2022/08/05 11:14:28;;;;;;;3.63;3.33;;;;;;;34.66;37.97;100013.47;5006598;28;20250;-74
2022/08/05 11:17:28;;;;;;;7.47;3.83;;;;;;;34.32;39.21;100007.38;5006784;28;20211;-75
2022/08/05 11:19:57;;;;;;;3.53;3.05;;;;;;;34.30;38.72;100010.22;4948829;28;20269;-76
2022/08/05 11:22:46;;;;;;;3.50;3.30;;;;;;;34.94;37.55;100006.56;4947665;29;20209;-76
2022/08/05 11:25:32;;;;;;;4.43;3.20;;;;;;;35.18;37.72;99986.41;4948353;29;20202;-75
2022/08/05 11:28:46;;;;;;;4.22;3.28;;;;;;;34.67;38.51;100013.38;4932784;29;20201;-76
2022/08/05 11:31:27;;;;;;;4.97;3.33;;;;;;;34.67;37.45;100005.28;4913951;29;20317;-75
2022/08/05 11:33:56;;;;;;;5.57;4.30;;;;;;;34.71;37.15;99998.63;4914789;29;20200;-74
2022/08/05 11:36:48;;;;;;;3.88;3.10;;;;;;;35.17;36.83;100000.03;4914180;29;20250;-76